Fordyce, Nebraska
Current Conditions -  °F | °C
As of 2:55 AM on Wednesday 26 Nov 2014 (Local Time) from KYKN Reporting Station
Overcast Overcast  
Wind Chill: -4°   Ceiling: 1600
Heat Index:   Visibility: 10mi
Dew Point:   Wind: 17mph
Humidity: 87%   Direction: 310°NW
Pressure: 29.86"   Gusts: NA
Location:  42.7°N, 97.36°W
Report Text: KYKN 260855Z AUTO 31015KT 10SM OVC016 02/00 A2986 RMK AO1 52010
Loading
Personal Weather Stations






























Interactive Weather Map New forecast layout! Learn more

10-Day Weather Forecast

Advertisements
Track Severe Weather on mobile